Time;durP1;ratioP1;P1;durP2;ratioP2;P2;SDS_P1;SDS_P2;PMS_P1;PMS_P2;Temp;Humidity;BMP_temperature;BMP_pressure;BME280_temperature;BME280_humidity;BME280_pressure;Samples;Min_cycle;Max_cycle;Signal;HPM_P1;HPM_P2
2021/12/09 00:01:43;;;;;;;4.50;4.10;;;;;;;;;;5032021;28;20439;-75
2021/12/09 00:04:12;;;;;;;5.07;3.85;;;;;;;;;;5032095;28;20486;-75
2021/12/09 00:06:40;;;;;;;4.03;3.63;;;;;;;;;;5032338;28;20245;-77
2021/12/09 00:09:08;;;;;;;4.37;3.97;;;;;;;;;;5032712;28;20468;-76
2021/12/09 00:11:43;;;;;;;7.43;4.20;;;;;;;;;;5031303;28;20447;-75
2021/12/09 00:14:10;;;;;;;4.40;3.80;;;;;;;;;;5032080;28;20476;-77
2021/12/09 00:16:37;;;;;;;3.43;3.13;;;;;;;;;;5031751;28;20454;-75
2021/12/09 00:19:06;;;;;;;8.13;3.97;;;;;;;;;;5031976;28;20809;-75
2021/12/09 00:21:34;;;;;;;5.07;3.13;;;;;;;;;;5032682;28;20548;-75
2021/12/09 00:24:01;;;;;;;3.27;2.97;;;;;;;;;;5031307;28;20521;-76
2021/12/09 00:26:28;;;;;;;3.78;2.90;;;;;;;;;;5032278;28;20442;-75
2021/12/09 00:28:55;;;;;;;5.17;3.50;;;;;;;;;;5034183;28;20209;-75
2021/12/09 00:31:23;;;;;;;3.80;3.50;;;;;;;;;;5040350;28;20509;-76
2021/12/09 00:33:50;;;;;;;8.00;3.20;;;;;;;;;;5031743;28;20496;-76
2021/12/09 00:36:27;;;;;;;8.13;2.97;;;;;;;;;;5032801;28;20445;-76
2021/12/09 00:38:54;;;;;;;5.83;3.60;;;;;;;;;;5031818;28;20881;-76
2021/12/09 00:41:21;;;;;;;4.80;2.60;;;;;;;;;;5032103;28;20443;-76
2021/12/09 00:43:48;;;;;;;4.72;2.83;;;;;;;;;;5046134;28;20477;-77
2021/12/09 00:46:15;;;;;;;5.60;3.23;;;;;;;;;;5049014;28;20211;-76
2021/12/09 00:48:42;;;;;;;2.93;2.73;;;;;;;;;;5050232;28;20438;-77
2021/12/09 00:51:09;;;;;;;5.23;3.20;;;;;;;;;;5050709;28;20473;-74
2021/12/09 00:53:38;;;;;;;4.77;2.80;;;;;;;;;;5050045;28;20441;-78
2021/12/09 00:56:06;;;;;;;5.70;3.07;;;;;;;;;;5050212;28;20446;-78
2021/12/09 00:58:33;;;;;;;5.97;3.27;;;;;;;;;;5050666;28;20465;-74
2021/12/09 01:01:00;;;;;;;3.17;2.87;;;;;;;;;;5045134;28;20493;-75
2021/12/09 01:03:28;;;;;;;7.47;3.40;;;;;;;;;;5031658;28;21001;-76
2021/12/09 01:05:55;;;;;;;2.83;2.60;;;;;;;;;;5030394;28;20474;-75
2021/12/09 01:08:22;;;;;;;7.30;3.33;;;;;;;;;;5034084;28;20453;-74
2021/12/09 01:10:50;;;;;;;5.17;2.30;;;;;;;;;;5035064;28;20447;-75
2021/12/09 01:13:17;;;;;;;4.37;2.83;;;;;;;;;;5034858;28;20445;-75
2021/12/09 01:15:44;;;;;;;4.90;2.93;;;;;;;;;;5034533;28;20469;-76
2021/12/09 01:18:11;;;;;;;6.60;3.27;;;;;;;;;;5034434;28;20502;-75
2021/12/09 01:20:38;;;;;;;3.03;2.70;;;;;;;;;;5033224;28;20906;-74
2021/12/09 01:23:06;;;;;;;6.30;3.20;;;;;;;;;;5034522;28;20649;-75
2021/12/09 01:25:36;;;;;;;5.73;3.27;;;;;;;;;;5035982;28;20464;-75
2021/12/09 01:28:06;;;;;;;6.85;3.13;;;;;;;;;;5035197;28;20508;-75
2021/12/09 01:30:34;;;;;;;5.50;2.90;;;;;;;;;;5035978;28;20610;-75
2021/12/09 01:33:01;;;;;;;4.10;3.03;;;;;;;;;;5035299;28;20459;-75
2021/12/09 01:35:30;;;;;;;11.90;3.20;;;;;;;;;;5033911;28;20465;-76
2021/12/09 01:38:00;;;;;;;4.53;3.00;;;;;;;;;;5033949;28;20805;-76
2021/12/09 01:40:28;;;;;;;6.33;3.43;;;;;;;;;;5033975;28;20435;-75
2021/12/09 01:42:56;;;;;;;4.33;3.37;;;;;;;;;;5033613;28;20449;-75
2021/12/09 01:45:24;;;;;;;4.17;2.90;;;;;;;;;;5033018;28;20477;-75
2021/12/09 01:47:51;;;;;;;3.70;3.40;;;;;;;;;;5033573;28;20447;-77
2021/12/09 01:50:19;;;;;;;4.57;3.43;;;;;;;;;;5033676;28;20445;-77
2021/12/09 01:52:46;;;;;;;4.80;3.60;;;;;;;;;;5033477;28;20460;-75
2021/12/09 01:55:14;;;;;;;3.70;3.33;;;;;;;;;;5033477;28;20520;-75
2021/12/09 01:57:41;;;;;;;4.50;3.37;;;;;;;;;;5033371;28;20462;-76
2021/12/09 02:00:11;;;;;;;4.20;3.80;;;;;;;;;;5033015;28;20956;-76
2021/12/09 02:02:39;;;;;;;5.57;4.40;;;;;;;;;;5053132;28;20939;-74
2021/12/09 02:05:07;;;;;;;4.93;4.53;;;;;;;;;;5054090;28;20560;-76
2021/12/09 02:07:34;;;;;;;8.67;4.50;;;;;;;;;;5054316;28;20491;-75
2021/12/09 02:10:01;;;;;;;4.50;4.10;;;;;;;;;;5054475;28;20446;-75
2021/12/09 02:12:28;;;;;;;6.17;3.63;;;;;;;;;;5054121;28;20536;-77
2021/12/09 02:14:59;;;;;;;4.57;4.18;;;;;;;;;;5053872;28;20468;-75
2021/12/09 02:17:27;;;;;;;4.33;4.03;;;;;;;;;;5054245;28;20294;-76
2021/12/09 02:19:57;;;;;;;4.33;4.03;;;;;;;;;;5054027;28;20449;-76
2021/12/09 02:22:26;;;;;;;5.10;4.60;;;;;;;;;;5053950;28;20534;-74
2021/12/09 02:24:53;;;;;;;5.93;4.47;;;;;;;;;;5053969;28;20573;-75
2021/12/09 02:27:22;;;;;;;9.27;4.60;;;;;;;;;;5053984;28;20444;-75
2021/12/09 02:29:49;;;;;;;5.50;4.27;;;;;;;;;;5054129;28;20438;-75
2021/12/09 02:32:16;;;;;;;8.93;4.60;;;;;;;;;;5054006;28;20445;-75
2021/12/09 02:34:43;;;;;;;5.90;5.23;;;;;;;;;;5054404;28;20475;-77
2021/12/09 02:37:13;;;;;;;10.90;5.60;;;;;;;;;;5055823;28;20515;-75
2021/12/09 02:39:42;;;;;;;6.13;5.60;;;;;;;;;;5055487;28;20441;-74
2021/12/09 02:42:09;;;;;;;10.25;5.82;;;;;;;;;;5054108;28;20941;-75
2021/12/09 02:44:36;;;;;;;12.93;6.73;;;;;;;;;;5053290;28;20223;-76
2021/12/09 02:47:03;;;;;;;9.83;6.47;;;;;;;;;;5053789;28;20468;-75
2021/12/09 02:49:31;;;;;;;6.83;5.70;;;;;;;;;;5053976;28;20445;-74
2021/12/09 02:52:00;;;;;;;8.50;6.50;;;;;;;;;;5053424;28;20843;-76
2021/12/09 02:54:27;;;;;;;7.70;6.22;;;;;;;;;;5053413;28;20465;-76
2021/12/09 02:56:56;;;;;;;7.67;6.97;;;;;;;;;;5053655;28;20204;-75
2021/12/09 02:59:24;;;;;;;10.67;7.17;;;;;;;;;;5053322;28;20449;-75
2021/12/09 03:01:57;;;;;;;9.73;7.60;;;;;;;;;;5053484;28;20849;-75
2021/12/09 03:04:26;;;;;;;8.00;6.60;;;;;;;;;;5053034;28;20568;-76
2021/12/09 03:06:54;;;;;;;7.25;6.60;;;;;;;;;;5053524;28;20540;-76
2021/12/09 03:09:22;;;;;;;8.73;6.10;;;;;;;;;;5053170;28;20197;-76
2021/12/09 03:11:54;;;;;;;11.83;6.77;;;;;;;;;;5053261;28;20472;-75
2021/12/09 03:14:23;;;;;;;9.93;6.15;;;;;;;;;;5046032;28;20564;-75
2021/12/09 03:16:50;;;;;;;14.47;6.00;;;;;;;;;;5038904;28;20259;-75
2021/12/09 03:19:18;;;;;;;10.32;6.63;;;;;;;;;;5053062;28;20457;-75
2021/12/09 03:21:46;;;;;;;9.77;5.77;;;;;;;;;;5048036;28;20199;-75
2021/12/09 03:24:15;;;;;;;10.03;5.90;;;;;;;;;;5049561;28;21057;-76
2021/12/09 03:26:43;;;;;;;10.23;6.70;;;;;;;;;;5052505;28;20879;-75
2021/12/09 03:29:12;;;;;;;10.40;7.40;;;;;;;;;;5052328;28;20502;-75
2021/12/09 03:31:42;;;;;;;13.30;6.50;;;;;;;;;;5052520;28;20473;-75
2021/12/09 03:34:09;;;;;;;8.30;5.80;;;;;;;;;;5052141;28;20449;-75
2021/12/09 03:36:36;;;;;;;8.50;6.57;;;;;;;;;;5052470;28;20718;-75
2021/12/09 03:39:05;;;;;;;11.07;6.80;;;;;;;;;;5052468;28;20993;-75
2021/12/09 03:41:32;;;;;;;10.20;5.90;;;;;;;;;;5052604;28;20505;-75
2021/12/09 03:44:00;;;;;;;10.73;6.90;;;;;;;;;;5051862;28;20557;-76
2021/12/09 03:46:28;;;;;;;10.23;6.38;;;;;;;;;;5051756;28;20490;-76
2021/12/09 03:48:56;;;;;;;8.40;6.00;;;;;;;;;;5052687;28;20245;-75
2021/12/09 03:51:23;;;;;;;12.73;6.80;;;;;;;;;;5052024;28;20438;-75
2021/12/09 03:53:51;;;;;;;10.07;6.53;;;;;;;;;;5051905;28;20223;-75
2021/12/09 03:56:18;;;;;;;11.10;6.30;;;;;;;;;;5051798;28;20461;-77
2021/12/09 03:58:45;;;;;;;14.07;6.80;;;;;;;;;;5051976;28;20436;-76
2021/12/09 04:01:12;;;;;;;9.50;6.97;;;;;;;;;;5052003;28;20437;-76
2021/12/09 04:03:39;;;;;;;11.00;6.87;;;;;;;;;;5052039;28;20204;-74
2021/12/09 04:06:08;;;;;;;11.07;6.90;;;;;;;;;;5052125;28;20440;-74
2021/12/09 04:08:35;;;;;;;9.40;6.97;;;;;;;;;;5051728;28;20450;-76
2021/12/09 04:11:02;;;;;;;12.43;6.45;;;;;;;;;;5052083;28;20439;-75
2021/12/09 04:13:30;;;;;;;8.67;6.90;;;;;;;;;;5051807;28;20268;-77
2021/12/09 04:15:57;;;;;;;9.20;6.70;;;;;;;;;;5048094;28;20492;-75
2021/12/09 04:18:24;;;;;;;12.63;7.03;;;;;;;;;;5048907;28;20446;-75
2021/12/09 04:20:51;;;;;;;12.03;7.57;;;;;;;;;;5040263;28;20853;-75
2021/12/09 04:23:20;;;;;;;8.77;7.00;;;;;;;;;;5031783;28;20437;-74
2021/12/09 04:25:47;;;;;;;8.43;7.00;;;;;;;;;;5031610;28;20490;-74
2021/12/09 04:28:14;;;;;;;16.70;8.77;;;;;;;;;;5031758;28;20805;-75
2021/12/09 04:30:41;;;;;;;11.97;7.83;;;;;;;;;;5031766;28;20446;-74
2021/12/09 04:33:08;;;;;;;8.80;6.50;;;;;;;;;;5031420;28;20481;-76
2021/12/09 04:35:35;;;;;;;8.20;6.80;;;;;;;;;;5031824;28;20454;-75
2021/12/09 04:38:02;;;;;;;7.20;6.50;;;;;;;;;;5036146;28;20883;-76
2021/12/09 04:40:31;;;;;;;8.67;6.73;;;;;;;;;;5044403;28;20460;-75
2021/12/09 04:43:00;;;;;;;11.00;6.43;;;;;;;;;;5051031;28;20479;-74
2021/12/09 04:45:27;;;;;;;8.90;6.93;;;;;;;;;;5031992;28;20606;-76
2021/12/09 04:47:55;;;;;;;6.33;5.73;;;;;;;;;;5031817;28;20496;-77
2021/12/09 04:50:22;;;;;;;8.43;6.30;;;;;;;;;;5031375;28;20478;-74
2021/12/09 04:52:49;;;;;;;11.10;5.70;;;;;;;;;;5031336;28;20466;-74
2021/12/09 04:55:16;;;;;;;8.40;5.83;;;;;;;;;;5031416;28;20500;-76
2021/12/09 04:57:44;;;;;;;7.93;5.80;;;;;;;;;;5031750;28;20454;-75
2021/12/09 05:00:13;;;;;;;9.00;5.90;;;;;;;;;;5035633;28;20436;-76
2021/12/09 05:02:59;;;;;;;9.43;6.22;;;;;;;;;;5048996;28;20490;-74
2021/12/09 05:05:26;;;;;;;11.13;5.60;;;;;;;;;;5056065;28;20324;-75
2021/12/09 05:07:53;;;;;;;9.30;5.20;;;;;;;;;;5056982;28;20453;-75
2021/12/09 05:10:20;;;;;;;9.27;5.30;;;;;;;;;;5056762;28;20454;-75
2021/12/09 05:12:49;;;;;;;7.23;5.27;;;;;;;;;;5055561;28;20445;-74
2021/12/09 05:15:16;;;;;;;10.00;5.50;;;;;;;;;;5055078;28;20525;-74
2021/12/09 05:17:43;;;;;;;6.40;4.87;;;;;;;;;;5055257;28;20459;-75
2021/12/09 05:20:10;;;;;;;8.73;4.80;;;;;;;;;;5055118;28;20451;-75
2021/12/09 05:22:37;;;;;;;7.40;4.40;;;;;;;;;;5055250;28;20441;-74
2021/12/09 05:25:07;;;;;;;9.10;4.50;;;;;;;;;;5054809;28;20488;-74
2021/12/09 05:27:36;;;;;;;8.27;4.50;;;;;;;;;;5055129;28;20502;-75
2021/12/09 05:30:08;;;;;;;13.97;4.70;;;;;;;;;;5055565;28;20454;-76
2021/12/09 05:32:35;;;;;;;4.57;4.10;;;;;;;;;;5054905;28;20496;-76
2021/12/09 05:35:02;;;;;;;6.53;4.10;;;;;;;;;;5054709;28;20467;-74
2021/12/09 05:37:29;;;;;;;4.50;4.10;;;;;;;;;;5055069;28;20446;-75
2021/12/09 05:39:57;;;;;;;6.63;4.10;;;;;;;;;;5054710;28;20485;-76
2021/12/09 05:42:25;;;;;;;6.10;4.37;;;;;;;;;;5054589;28;20919;-76
2021/12/09 05:44:53;;;;;;;8.97;4.03;;;;;;;;;;5053719;28;20495;-76
2021/12/09 05:47:21;;;;;;;7.57;4.38;;;;;;;;;;5055279;28;20536;-75
2021/12/09 05:49:49;;;;;;;4.28;3.60;;;;;;;;;;5055475;28;20201;-74
2021/12/09 05:52:16;;;;;;;5.10;3.90;;;;;;;;;;5054768;28;20195;-76
2021/12/09 05:54:43;;;;;;;5.13;4.30;;;;;;;;;;5055629;28;20471;-78
2021/12/09 05:57:11;;;;;;;6.20;4.47;;;;;;;;;;5055074;28;20317;-77
2021/12/09 05:59:40;;;;;;;3.87;3.57;;;;;;;;;;5055092;28;20480;-78
2021/12/09 06:02:08;;;;;;;5.53;3.90;;;;;;;;;;5055444;28;20444;-79
2021/12/09 06:04:36;;;;;;;4.03;3.73;;;;;;;;;;5054754;28;20578;-78
2021/12/09 06:07:03;;;;;;;5.75;3.88;;;;;;;;;;5062545;28;20960;-77
2021/12/09 06:09:30;;;;;;;5.60;4.20;;;;;;;;;;5062398;28;20231;-76
2021/12/09 06:11:57;;;;;;;3.77;3.33;;;;;;;;;;5063581;28;20465;-75
2021/12/09 06:14:24;;;;;;;7.53;3.80;;;;;;;;;;5064775;28;20956;-76
2021/12/09 06:16:52;;;;;;;6.47;5.17;;;;;;;;;;5065274;28;20450;-76
2021/12/09 06:19:19;;;;;;;9.40;4.30;;;;;;;;;;5063504;28;20446;-76
2021/12/09 06:21:47;;;;;;;6.50;4.15;;;;;;;;;;5064056;28;20445;-77
2021/12/09 06:24:14;;;;;;;6.53;4.10;;;;;;;;;;5055677;28;20227;-79
2021/12/09 06:26:41;;;;;;;4.32;3.78;;;;;;;;;;5055378;28;20484;-80
2021/12/09 06:29:08;;;;;;;5.63;3.73;;;;;;;;;;5056396;28;20199;-77
2021/12/09 06:31:35;;;;;;;8.50;4.50;;;;;;;;;;5054669;28;21000;-77
2021/12/09 06:34:03;;;;;;;5.87;4.30;;;;;;;;;;5055763;28;20495;-77
2021/12/09 06:36:30;;;;;;;10.30;4.40;;;;;;;;;;5055673;28;20440;-76
2021/12/09 06:38:58;;;;;;;12.93;4.40;;;;;;;;;;5054369;28;20444;-76
2021/12/09 06:41:26;;;;;;;5.23;4.73;;;;;;;;;;5054131;28;20460;-75
2021/12/09 06:43:53;;;;;;;5.33;3.23;;;;;;;;;;5053799;28;20488;-77
2021/12/09 06:46:20;;;;;;;7.78;4.05;;;;;;;;;;5053826;28;20508;-78
2021/12/09 06:48:47;;;;;;;4.77;3.43;;;;;;;;;;5054858;28;20199;-77
2021/12/09 06:51:14;;;;;;;4.23;3.80;;;;;;;;;;5054681;28;20447;-76
2021/12/09 06:53:41;;;;;;;6.20;3.70;;;;;;;;;;5055111;28;20472;-77
2021/12/09 06:56:09;;;;;;;9.97;6.67;;;;;;;;;;5053941;28;20438;-77
2021/12/09 06:58:36;;;;;;;8.63;3.97;;;;;;;;;;5054617;28;20456;-76
2021/12/09 07:01:04;;;;;;;7.57;4.47;;;;;;;;;;5055087;28;20437;-76
2021/12/09 07:03:32;;;;;;;6.23;4.00;;;;;;;;;;5053829;28;20428;-76
2021/12/09 07:06:05;;;;;;;7.13;3.80;;;;;;;;;;5052974;28;20483;-78
2021/12/09 07:08:32;;;;;;;7.40;4.33;;;;;;;;;;5053476;28;20460;-76
2021/12/09 07:10:59;;;;;;;4.88;3.88;;;;;;;;;;5053155;28;20445;-76
2021/12/09 07:13:30;;;;;;;4.17;3.77;;;;;;;;;;5052832;28;20197;-77
2021/12/09 07:15:57;;;;;;;4.43;3.70;;;;;;;;;;5052786;28;20462;-75
2021/12/09 07:18:27;;;;;;;8.63;3.70;;;;;;;;;;5052571;28;20214;-76
2021/12/09 07:20:54;;;;;;;5.28;3.42;;;;;;;;;;5052587;28;20785;-77
2021/12/09 07:23:21;;;;;;;6.10;4.10;;;;;;;;;;5053019;28;20252;-75
2021/12/09 07:25:48;;;;;;;3.38;3.17;;;;;;;;;;5053144;28;20533;-78
2021/12/09 07:28:15;;;;;;;5.43;4.33;;;;;;;;;;5052661;28;20205;-75
2021/12/09 07:30:44;;;;;;;6.38;4.10;;;;;;;;;;5052987;28;20449;-76
2021/12/09 07:33:11;;;;;;;4.43;3.90;;;;;;;;;;5052539;28;20276;-74
2021/12/09 07:35:39;;;;;;;6.83;4.10;;;;;;;;;;5052569;28;20453;-74
2021/12/09 07:38:06;;;;;;;5.97;5.00;;;;;;;;;;5052582;28;20447;-75
2021/12/09 07:40:34;;;;;;;6.18;4.25;;;;;;;;;;5052569;28;20445;-76
2021/12/09 07:43:01;;;;;;;4.40;4.00;;;;;;;;;;5052350;28;20200;-78
2021/12/09 07:45:28;;;;;;;9.07;4.50;;;;;;;;;;5051968;28;20485;-74
2021/12/09 07:47:56;;;;;;;9.97;4.50;;;;;;;;;;5052356;28;20476;-77
2021/12/09 07:50:24;;;;;;;6.47;4.70;;;;;;;;;;5052123;28;20456;-77
2021/12/09 07:52:52;;;;;;;8.02;3.67;;;;;;;;;;5053610;28;20434;-77
2021/12/09 07:55:20;;;;;;;6.83;3.93;;;;;;;;;;5049867;28;20288;-77
2021/12/09 07:57:47;;;;;;;8.07;4.30;;;;;;;;;;5052411;28;20876;-76
2021/12/09 08:00:16;;;;;;;6.97;3.70;;;;;;;;;;5042689;28;20446;-76
2021/12/09 08:02:43;;;;;;;4.90;4.13;;;;;;;;;;5045942;28;20499;-77
2021/12/09 08:05:12;;;;;;;9.23;4.40;;;;;;;;;;5051727;28;20991;-76
2021/12/09 08:07:41;;;;;;;5.20;4.50;;;;;;;;;;5052067;28;20445;-76
2021/12/09 08:10:09;;;;;;;8.63;4.25;;;;;;;;;;5052738;28;20832;-76
2021/12/09 08:12:36;;;;;;;5.10;4.00;;;;;;;;;;5052333;28;20198;-76
2021/12/09 08:15:04;;;;;;;5.37;4.50;;;;;;;;;;5053696;28;20500;-77
2021/12/09 08:17:58;;;;;;;8.30;5.10;;;;;;;;;;5052213;28;20950;-76
2021/12/09 08:20:27;;;;;;;4.67;4.37;;;;;;;;;;5052345;28;20523;-76
2021/12/09 08:22:55;;;;;;;4.20;3.80;;;;;;;;;;5051908;28;20479;-76
2021/12/09 08:25:22;;;;;;;4.43;3.90;;;;;;;;;;5052708;28;20488;-76
2021/12/09 08:27:49;;;;;;;4.70;4.30;;;;;;;;;;5052347;28;20962;-76
2021/12/09 08:30:18;;;;;;;4.77;4.03;;;;;;;;;;5051977;28;20458;-78
2021/12/09 08:32:46;;;;;;;5.90;3.83;;;;;;;;;;5051290;28;20449;-75
2021/12/09 08:35:15;;;;;;;5.82;3.92;;;;;;;;;;5051889;28;20472;-76
2021/12/09 08:37:43;;;;;;;6.87;4.10;;;;;;;;;;5052160;28;20201;-76
2021/12/09 08:40:11;;;;;;;5.30;4.70;;;;;;;;;;5052043;28;20456;-76
2021/12/09 08:42:38;;;;;;;5.20;4.70;;;;;;;;;;5051783;28;20491;-77
2021/12/09 08:45:09;;;;;;;8.83;4.47;;;;;;;;;;5051075;28;20478;-76
2021/12/09 08:47:36;;;;;;;5.00;4.50;;;;;;;;;;5038676;28;20456;-76
2021/12/09 08:50:03;;;;;;;9.47;4.63;;;;;;;;;;5047336;28;20446;-76
2021/12/09 08:52:30;;;;;;;6.13;5.53;;;;;;;;;;5051599;28;20464;-76
2021/12/09 08:54:59;;;;;;;6.83;5.30;;;;;;;;;;5036939;28;20460;-76
2021/12/09 08:57:26;;;;;;;5.97;5.37;;;;;;;;;;5032053;28;20449;-76
2021/12/09 08:59:54;;;;;;;14.90;6.20;;;;;;;;;;5032056;28;20445;-76
2021/12/09 09:02:21;;;;;;;7.30;4.87;;;;;;;;;;5042122;28;20529;-75
2021/12/09 09:04:48;;;;;;;7.10;5.60;;;;;;;;;;5051103;28;20464;-76
2021/12/09 09:07:15;;;;;;;9.33;5.90;;;;;;;;;;5051653;28;20488;-76
2021/12/09 09:09:42;;;;;;;5.65;5.00;;;;;;;;;;5051837;28;20446;-77
2021/12/09 09:12:13;;;;;;;9.40;5.60;;;;;;;;;;5051980;28;20213;-76
2021/12/09 09:14:40;;;;;;;6.00;5.40;;;;;;;;;;5051343;28;20465;-76
2021/12/09 09:17:07;;;;;;;10.50;5.30;;;;;;;;;;5051152;28;20441;-76
2021/12/09 09:19:35;;;;;;;6.33;5.50;;;;;;;;;;5051351;28;20445;-77
2021/12/09 09:22:02;;;;;;;5.73;5.03;;;;;;;;;;5051563;28;20449;-76
2021/12/09 09:24:29;;;;;;;5.18;4.78;;;;;;;;;;5051189;28;20465;-77
2021/12/09 09:26:56;;;;;;;5.43;4.73;;;;;;;;;;5050968;28;20223;-76
2021/12/09 09:29:25;;;;;;;6.80;4.97;;;;;;;;;;5049619;28;20526;-77
2021/12/09 09:31:52;;;;;;;6.90;5.20;;;;;;;;;;5045120;28;20452;-76
2021/12/09 09:34:20;;;;;;;7.87;5.00;;;;;;;;;;5051096;28;20468;-75
2021/12/09 09:36:47;;;;;;;5.90;5.30;;;;;;;;;;5055206;28;20440;-75
2021/12/09 09:39:19;;;;;;;6.53;4.47;;;;;;;;;;5053156;28;20452;-76
2021/12/09 09:41:54;;;;;;;9.00;5.40;;;;;;;;;;5053067;28;20483;-76
2021/12/09 09:44:27;;;;;;;8.60;5.40;;;;;;;;;;5054148;28;20468;-76
2021/12/09 09:46:57;;;;;;;8.20;5.93;;;;;;;;;;5057219;28;20484;-76
2021/12/09 09:49:24;;;;;;;7.60;5.40;;;;;;;;;;5059725;28;20469;-77
2021/12/09 09:51:51;;;;;;;6.35;5.40;;;;;;;;;;5061337;28;20940;-75
2021/12/09 09:54:18;;;;;;;7.83;5.90;;;;;;;;;;5061381;28;20218;-76
2021/12/09 09:56:47;;;;;;;6.43;5.83;;;;;;;;;;5061380;28;20441;-76
2021/12/09 09:59:17;;;;;;;9.57;5.60;;;;;;;;;;5064207;28;20445;-74
2021/12/09 10:01:45;;;;;;;8.33;5.33;;;;;;;;;;5062534;28;20449;-76
2021/12/09 10:04:20;;;;;;;8.20;5.80;;;;;;;;;;5064917;28;20547;-75
2021/12/09 10:06:47;;;;;;;6.10;5.50;;;;;;;;;;5067575;28;20495;-76
2021/12/09 10:09:16;;;;;;;8.67;5.03;;;;;;;;;;5066984;28;20445;-77
2021/12/09 10:11:43;;;;;;;5.07;4.57;;;;;;;;;;5061304;28;20454;-75
2021/12/09 10:14:12;;;;;;;6.67;5.17;;;;;;;;;;5064759;28;20468;-76
2021/12/09 10:16:41;;;;;;;5.70;5.20;;;;;;;;;;5048289;28;20786;-75
2021/12/09 10:19:16;;;;;;;5.20;4.70;;;;;;;;;;5036741;28;20450;-76
2021/12/09 10:21:44;;;;;;;7.17;5.10;;;;;;;;;;5037800;28;20901;-77
2021/12/09 10:24:11;;;;;;;5.80;4.83;;;;;;;;;;5034639;28;20466;-76
2021/12/09 10:26:40;;;;;;;5.87;5.07;;;;;;;;;;5038413;28;20980;-76
2021/12/09 10:29:08;;;;;;;4.90;4.50;;;;;;;;;;5054152;28;20814;-76
2021/12/09 10:31:36;;;;;;;7.50;5.40;;;;;;;;;;5052479;28;20453;-75
2021/12/09 10:34:12;;;;;;;6.88;4.90;;;;;;;;;;5054565;28;20458;-76
2021/12/09 10:36:52;;;;;;;5.63;4.70;;;;;;;;;;5052328;28;20187;-76
2021/12/09 10:39:27;;;;;;;5.33;4.60;;;;;;;;;;5053514;28;20471;-76
2021/12/09 10:41:56;;;;;;;4.75;4.20;;;;;;;;;;5050740;28;20993;-76
2021/12/09 10:44:37;;;;;;;4.57;4.25;;;;;;;;;;5053188;28;20702;-76
2021/12/09 10:47:11;;;;;;;9.60;4.93;;;;;;;;;;5055683;28;20207;-78
2021/12/09 10:49:52;;;;;;;5.15;3.88;;;;;;;;;;5047256;28;20451;-75
2021/12/09 10:52:36;;;;;;;5.27;4.50;;;;;;;;;;5051030;28;20187;-75
2021/12/09 10:55:07;;;;;;;5.40;3.90;;;;;;;;;;5054698;28;20476;-75
2021/12/09 10:57:34;;;;;;;4.33;3.93;;;;;;;;;;5055706;28;20526;-76
2021/12/09 11:00:15;;;;;;;7.20;4.40;;;;;;;;;;5052502;28;20457;-75
2021/12/09 11:02:56;;;;;;;5.93;4.30;;;;;;;;;;5051415;28;20449;-75
2021/12/09 11:05:24;;;;;;;5.63;4.67;;;;;;;;;;5054827;28;21000;-75
2021/12/09 11:07:52;;;;;;;4.80;4.40;;;;;;;;;;5054841;28;21061;-76
2021/12/09 11:10:24;;;;;;;5.22;4.70;;;;;;;;;;5053893;28;20444;-75
2021/12/09 11:12:52;;;;;;;5.73;4.47;;;;;;;;;;5053649;28;20214;-76
2021/12/09 11:15:21;;;;;;;6.50;4.37;;;;;;;;;;5054498;28;20473;-76
2021/12/09 11:17:51;;;;;;;4.70;4.10;;;;;;;;;;5054444;28;20532;-75
2021/12/09 11:20:33;;;;;;;4.45;4.03;;;;;;;;;;5064959;28;20521;-75
2021/12/09 11:23:01;;;;;;;5.50;4.03;;;;;;;;;;5059266;28;20195;-76
2021/12/09 11:25:32;;;;;;;6.80;4.35;;;;;;;;;;5057194;28;20249;-77
2021/12/09 11:28:12;;;;;;;4.70;4.30;;;;;;;;;;5055443;28;20207;-76
2021/12/09 11:30:54;;;;;;;6.03;4.28;;;;;;;;;;5054470;28;20444;-76
2021/12/09 11:33:31;;;;;;;5.70;4.53;;;;;;;;;;5037754;28;20522;-76
2021/12/09 11:35:58;;;;;;;4.30;3.90;;;;;;;;;;5053752;28;20464;-76
2021/12/09 11:38:43;;;;;;;4.13;3.83;;;;;;;;;;5054824;28;20434;-75
2021/12/09 11:41:25;;;;;;;8.43;4.30;;;;;;;;;;5034883;28;20815;-76
2021/12/09 11:43:52;;;;;;;7.30;5.00;;;;;;;;;;5043379;28;20446;-76
2021/12/09 11:46:19;;;;;;;5.93;4.18;;;;;;;;;;5054473;28;20823;-76
2021/12/09 11:48:46;;;;;;;6.17;5.57;;;;;;;;;;5055836;28;20211;-77
2021/12/09 11:51:14;;;;;;;5.00;4.03;;;;;;;;;;5056094;28;20469;-76
2021/12/09 11:53:44;;;;;;;4.43;3.67;;;;;;;;;;5058985;28;20519;-75
2021/12/09 11:56:24;;;;;;;11.20;4.27;;;;;;;;;;5066850;28;20478;-76
2021/12/09 11:59:23;;;;;;;5.47;4.30;;;;;;;;;;5071307;28;20417;-76
2021/12/09 12:07:57;;;;;;;4.30;4.00;;;;;;;;;;5068495;28;20954;-75
2021/12/09 12:13:35;;;;;;;6.90;4.30;;;;;;;;;;5062685;28;20757;-76
2021/12/09 12:16:18;;;;;;;5.60;3.50;;;;;;;;;;5051203;28;20521;-76
2021/12/09 12:18:55;;;;;;;3.95;3.65;;;;;;;;;;5051460;28;20445;-76
2021/12/09 12:24:43;;;;;;;3.80;3.27;;;;;;;;;;5052448;28;20813;-77
2021/12/09 12:27:25;;;;;;;6.53;4.80;;;;;;;;;;5033733;28;20474;-75
2021/12/09 12:30:10;;;;;;;9.50;4.13;;;;;;;;;;5033465;28;20434;-75
2021/12/09 12:33:06;;;;;;;4.87;3.60;;;;;;;;;;5033277;28;20290;-75
2021/12/09 12:35:58;;;;;;;5.67;4.50;;;;;;;;;;5033281;28;20492;-75
2021/12/09 12:38:37;;;;;;;7.23;3.93;;;;;;;;;;5033891;28;20447;-75
2021/12/09 12:41:07;;;;;;;4.00;3.40;;;;;;;;;;5033871;28;20450;-76
2021/12/09 12:43:38;;;;;;;4.90;3.40;;;;;;;;;;5040047;28;20453;-76
2021/12/09 12:46:18;;;;;;;4.90;3.00;;;;;;;;;;5052752;28;20445;-75
2021/12/09 12:51:34;;;;;;;8.93;3.70;;;;;;;;;;5052248;28;20265;-74
2021/12/09 12:54:04;;;;;;;10.27;2.90;;;;;;;;;;5052750;28;20462;-75
2021/12/09 12:56:33;;;;;;;8.10;3.17;;;;;;;;;;5053379;28;20484;-75
2021/12/09 12:59:16;;;;;;;8.60;3.20;;;;;;;;;;5053188;28;20499;-75
2021/12/09 13:01:50;;;;;;;5.50;3.20;;;;;;;;;;5051958;28;20492;-77
2021/12/09 13:04:41;;;;;;;6.18;4.90;;;;;;;;;;5053364;28;20473;-75
2021/12/09 13:07:18;;;;;;;7.60;6.90;;;;;;;;;;5053107;28;20219;-77
2021/12/09 13:09:53;;;;;;;7.00;5.87;;;;;;;;;;5053376;28;20454;-77
2021/12/09 13:12:35;;;;;;;8.80;6.47;;;;;;;;;;5053640;28;20459;-78
2021/12/09 13:15:10;;;;;;;13.70;6.37;;;;;;;;;;5053624;28;20457;-79
2021/12/09 13:17:40;;;;;;;7.47;5.90;;;;;;;;;;5054188;28;20441;-78
2021/12/09 13:20:15;;;;;;;7.87;6.40;;;;;;;;;;5057691;28;20445;-78
2021/12/09 13:22:42;;;;;;;12.27;6.67;;;;;;;;;;5057285;28;20436;-77
2021/12/09 13:25:18;;;;;;;6.77;5.10;;;;;;;;;;5056714;28;20546;-77
2021/12/09 13:27:54;;;;;;;6.93;4.60;;;;;;;;;;5058019;28;21074;-77
2021/12/09 13:30:57;;;;;;;6.63;4.30;;;;;;;;;;5057874;28;20460;-78
2021/12/09 13:33:47;;;;;;;7.23;4.20;;;;;;;;;;5056179;28;20460;-77
2021/12/09 13:36:33;;;;;;;13.23;5.72;;;;;;;;;;5058025;28;20544;-78
2021/12/09 13:47:24;;;;;;;9.03;4.87;;;;;;;;;;5056464;28;20468;-77
2021/12/09 13:49:59;;;;;;;9.20;4.90;;;;;;;;;;5057176;28;20540;-78
2021/12/09 13:55:13;;;;;;;10.90;4.43;;;;;;;;;;5057406;28;20218;-78
2021/12/09 13:57:41;;;;;;;7.97;4.03;;;;;;;;;;5057925;28;20442;-78
2021/12/09 14:00:10;;;;;;;5.67;4.43;;;;;;;;;;5057324;28;20202;-77
2021/12/09 14:02:37;;;;;;;6.30;4.63;;;;;;;;;;5058265;28;20433;-78
2021/12/09 14:05:07;;;;;;;5.67;3.80;;;;;;;;;;5057782;28;20223;-80
2021/12/09 14:07:41;;;;;;;6.77;4.27;;;;;;;;;;5057715;28;20830;-79
2021/12/09 14:10:12;;;;;;;9.03;5.00;;;;;;;;;;5056437;28;20955;-79
2021/12/09 14:12:41;;;;;;;10.37;5.20;;;;;;;;;;5057112;28;20533;-78
2021/12/09 14:15:13;;;;;;;9.13;5.07;;;;;;;;;;5056572;28;20560;-77
2021/12/09 14:17:42;;;;;;;4.20;3.80;;;;;;;;;;5056021;28;20438;-78
2021/12/09 14:20:19;;;;;;;9.77;3.50;;;;;;;;;;5057134;28;20953;-77
2021/12/09 14:22:49;;;;;;;8.37;3.77;;;;;;;;;;5054683;28;20446;-76
2021/12/09 14:25:17;;;;;;;3.73;3.30;;;;;;;;;;5054912;28;20477;-75
2021/12/09 14:27:44;;;;;;;8.30;4.00;;;;;;;;;;5054745;28;20469;-78
2021/12/09 14:30:13;;;;;;;11.20;3.70;;;;;;;;;;5054420;28;20203;-77
2021/12/09 14:32:46;;;;;;;8.30;4.63;;;;;;;;;;5055223;28;20449;-78
2021/12/09 14:35:20;;;;;;;10.50;3.13;;;;;;;;;;5055394;28;20589;-78
2021/12/09 14:37:51;;;;;;;5.93;3.43;;;;;;;;;;5054730;28;20465;-78
2021/12/09 14:40:20;;;;;;;8.13;3.70;;;;;;;;;;5055069;28;20449;-80
2021/12/09 14:42:49;;;;;;;12.40;5.20;;;;;;;;;;5055458;28;20441;-79
2021/12/09 14:45:16;;;;;;;8.77;3.60;;;;;;;;;;5054917;28;20840;-79
2021/12/09 14:47:54;;;;;;;5.10;3.10;;;;;;;;;;5054971;28;20830;-79
2021/12/09 14:50:21;;;;;;;5.60;2.07;;;;;;;;;;5054716;28;20905;-78
2021/12/09 14:52:49;;;;;;;6.40;3.00;;;;;;;;;;5054211;28;20453;-78
2021/12/09 14:55:18;;;;;;;7.53;3.33;;;;;;;;;;5054816;28;20457;-79
2021/12/09 14:57:55;;;;;;;8.47;3.47;;;;;;;;;;5054535;28;20486;-78
2021/12/09 15:00:29;;;;;;;11.40;5.30;;;;;;;;;;5054039;28;20449;-78
2021/12/09 15:02:56;;;;;;;7.90;4.03;;;;;;;;;;5054447;28;20445;-79
2021/12/09 15:05:23;;;;;;;7.40;2.33;;;;;;;;;;5053482;28;20705;-79
2021/12/09 15:07:59;;;;;;;7.83;2.90;;;;;;;;;;5053930;28;20492;-78
2021/12/09 15:10:26;;;;;;;8.10;2.90;;;;;;;;;;5053724;28;20535;-77
2021/12/09 15:12:53;;;;;;;8.40;3.57;;;;;;;;;;5053682;28;20591;-78
2021/12/09 15:15:22;;;;;;;7.63;3.03;;;;;;;;;;5053833;28;20463;-77
2021/12/09 15:17:53;;;;;;;7.40;2.80;;;;;;;;;;5053984;28;20643;-78
2021/12/09 15:20:20;;;;;;;8.93;2.67;;;;;;;;;;5053745;28;20441;-77
2021/12/09 15:22:55;;;;;;;6.50;2.83;;;;;;;;;;5053536;28;21015;-80